Time;durP1;ratioP1;P1;durP2;ratioP2;P2;SDS_P1;SDS_P2;PMS_P1;PMS_P2;Temp;Humidity;BMP_temperature;BMP_pressure;BME280_temperature;BME280_humidity;BME280_pressure;Samples;Min_cycle;Max_cycle;Signal;HPM_P1;HPM_P2
2021/01/14 00:01:55;;;;;;;;;25.33;20.33;;;;;1.48;66.08;100254.91;5132871;27;9615;-77
2021/01/14 00:04:52;;;;;;;;;21.33;21.33;;;;;1.40;66.74;100256.28;5132767;27;8843;-78
2021/01/14 00:07:53;;;;;;;;;19.67;17.67;;;;;1.42;66.77;100262.28;5133818;27;8953;-77
2021/01/14 00:10:26;;;;;;;;;22.33;22.33;;;;;1.36;66.59;100261.47;5133806;27;8839;-78
2021/01/14 00:13:34;;;;;;;;;15.33;15.33;;;;;1.38;66.06;100258.47;5134820;27;8965;-77
2021/01/14 00:16:33;;;;;;;;;30.00;29.00;;;;;1.42;65.84;100269.63;5154189;27;8867;-78
2021/01/14 00:19:45;;;;;;;;;29.00;23.33;;;;;1.35;65.38;100262.56;5153331;27;9646;-78
2021/01/14 00:23:02;;;;;;;;;18.67;18.67;;;;;1.44;65.37;100262.78;5140898;27;8836;-78
2021/01/14 00:25:58;;;;;;;;;18.00;18.00;;;;;1.43;66.62;100268.53;5152648;27;8825;-78
2021/01/14 00:28:57;;;;;;;;;20.33;18.33;;;;;1.37;65.67;100268.53;5153455;27;8821;-78
2021/01/14 00:32:02;;;;;;;;;16.33;16.33;;;;;1.37;66.11;100267.72;5151497;27;8865;-77
2021/01/14 00:34:35;;;;;;;;;21.33;19.00;;;;;1.41;65.94;100271.53;5154277;27;8817;-78
2021/01/14 00:40:48;;;;;;;;;23.33;23.33;;;;;1.59;65.79;100268.16;5151589;27;9536;-78
2021/01/14 00:43:43;;;;;;;;;20.67;19.00;;;;;1.55;65.37;100274.47;5136348;27;8969;-77
2021/01/14 00:46:40;;;;;;;;;19.33;19.00;;;;;1.51;65.50;100278.84;5136147;27;8827;-78
2021/01/14 00:49:39;;;;;;;;;22.33;16.67;;;;;1.45;66.57;100274.50;5130725;27;9563;-78
2021/01/14 00:52:40;;;;;;;;;22.67;22.67;;;;;1.42;66.89;100280.53;5135690;27;8846;-78
2021/01/14 00:55:47;;;;;;;;;16.67;16.67;;;;;1.61;65.90;100284.22;5135911;27;8881;-77
2021/01/14 00:58:55;;;;;;;;;19.00;19.00;;;;;1.58;65.92;100280.16;5141868;27;8952;-78
2021/01/14 01:01:52;;;;;;;;;13.00;13.00;;;;;1.57;66.21;100285.91;5135528;27;9017;-77
2021/01/14 01:04:48;;;;;;;;;19.67;19.67;;;;;1.55;66.26;100291.66;5137979;27;8839;-77
2021/01/14 01:07:59;;;;;;;;;19.67;19.00;;;;;1.39;65.48;100301.00;5135957;27;8851;-77
2021/01/14 01:11:01;;;;;;;;;15.67;15.67;;;;;1.52;65.20;100300.34;5148294;27;8829;-77
2021/01/14 01:13:58;;;;;;;;;22.00;22.00;;;;;1.58;65.30;100310.16;5154074;27;8944;-78
2021/01/14 01:16:28;;;;;;;;;17.67;17.67;;;;;1.48;64.94;100334.75;5157105;27;8852;-77
2021/01/14 01:19:29;;;;;;;;;29.00;23.67;;;;;1.64;64.44;100332.75;5156130;27;8825;-78
2021/01/14 01:22:27;;;;;;;;;16.67;15.67;;;;;1.59;64.39;100343.66;5155680;27;8918;-78
2021/01/14 01:25:02;;;;;;;;;20.33;20.33;;;;;1.60;65.11;100348.84;5156730;27;8939;-78
2021/01/14 01:27:57;;;;;;;;;25.00;22.00;;;;;1.52;64.96;100349.41;5155735;27;8833;-78
2021/01/14 01:30:57;;;;;;;;;26.33;25.00;;;;;1.68;64.49;100344.72;5155948;27;8809;-78
2021/01/14 01:34:12;;;;;;;;;24.00;22.67;;;;;1.52;65.00;100337.69;5145511;27;8827;-78
2021/01/14 01:36:49;;;;;;;;;19.67;19.67;;;;;1.56;64.75;100331.44;5137185;27;9670;-78
2021/01/14 01:39:46;;;;;;;;;19.00;19.00;;;;;1.51;65.32;100327.91;5154800;27;8817;-78
2021/01/14 01:42:53;;;;;;;;;26.33;22.00;;;;;1.56;65.60;100325.16;5155455;27;8872;-78
2021/01/14 01:45:57;;;;;;;;;17.67;16.67;;;;;1.55;65.14;100324.34;5156366;27;8891;-78
2021/01/14 01:49:06;;;;;;;;;25.33;24.67;;;;;1.65;65.34;100337.09;5136392;27;9602;-77
2021/01/14 01:51:46;;;;;;;;;6.33;5.33;;;;;1.58;65.72;100334.69;5155576;27;8872;-78
2021/01/14 01:55:09;;;;;;;;;20.33;20.00;;;;;1.57;64.96;100330.34;5141657;27;8843;-77
2021/01/14 01:58:15;;;;;;;;;18.33;17.33;;;;;1.58;65.06;100334.69;5134628;27;8812;-78
2021/01/14 02:00:43;;;;;;;;;23.33;23.33;;;;;1.69;64.68;100313.66;5135480;27;8986;-78
2021/01/14 02:04:02;;;;;;;;;12.67;12.67;;;;;1.72;64.86;100306.81;5147979;27;8943;-78
2021/01/14 02:07:21;;;;;;;;;19.00;19.00;;;;;1.59;65.42;100310.97;5154775;27;8833;-78
2021/01/14 02:10:58;;;;;;;;;24.67;20.33;;;;;1.69;64.67;100310.94;5150001;27;9021;-78
2021/01/14 02:14:07;;;;;;;;;18.00;18.00;;;;;1.65;64.78;100315.31;5136625;27;8871;-78
2021/01/14 02:17:03;;;;;;;;;20.67;19.67;;;;;1.57;65.44;100311.25;5134039;27;8839;-78
2021/01/14 02:20:06;;;;;;;;;25.33;22.67;;;;;1.55;66.35;100307.19;5134020;27;8862;-77
2021/01/14 02:22:37;;;;;;;;;27.00;23.33;;;;;1.61;65.23;100320.50;5150260;27;8915;-78
2021/01/14 02:25:24;;;;;;;;;24.67;23.67;;;;;1.59;65.82;100313.69;5155660;27;8840;-78
2021/01/14 02:28:34;;;;;;;;;27.33;23.00;;;;;1.56;66.13;100309.63;5154051;27;8844;-78
2021/01/14 02:31:33;;;;;;;;;25.33;25.33;;;;;1.65;65.79;100309.84;5150548;27;8839;-77
2021/01/14 02:34:32;;;;;;;;;24.67;24.67;;;;;1.70;65.23;100311.75;5150760;27;8829;-78
2021/01/14 02:37:30;;;;;;;;;23.00;23.00;;;;;1.58;65.23;100310.16;5153780;27;8833;-77
2021/01/14 02:40:19;;;;;;;;;27.33;23.00;;;;;1.74;65.55;100315.53;5139505;27;8957;-78
2021/01/14 02:43:18;;;;;;;;;25.00;23.33;;;;;1.58;65.87;100312.88;5133524;27;8875;-77
2021/01/14 02:46:15;;;;;;;;;33.33;29.00;;;;;1.73;65.52;100322.06;5133874;27;8865;-78
2021/01/14 02:48:55;;;;;;;;;29.00;26.33;;;;;1.66;66.47;100315.00;5134622;27;8847;-78
2021/01/14 02:52:05;;;;;;;;;28.67;23.00;;;;;1.79;65.62;100312.78;5133674;27;8827;-77
2021/01/14 02:55:01;;;;;;;;;34.00;31.00;;;;;1.63;66.94;100321.03;5135928;27;8835;-77
2021/01/14 02:58:02;;;;;;;;;31.00;31.00;;;;;1.63;66.86;100314.78;5155307;27;8848;-77
2021/01/14 03:00:58;;;;;;;;;28.00;28.00;;;;;1.69;66.05;100321.84;5154582;27;8917;-78
2021/01/14 03:03:57;;;;;;;;;28.67;28.67;;;;;1.73;66.08;100319.34;5133503;27;8887;-77
2021/01/14 03:06:56;;;;;;;;;29.00;28.67;;;;;1.86;65.99;100319.56;5133489;27;9644;-78
2021/01/14 03:09:52;;;;;;;;;23.33;23.33;;;;;1.75;65.94;100317.97;5143994;27;8894;-78
2021/01/14 03:12:23;;;;;;;;;29.67;28.33;;;;;1.77;65.75;100317.69;5144267;27;8850;-77
2021/01/14 03:15:23;;;;;;;;;31.00;31.00;;;;;1.78;66.15;100324.78;5133218;27;8854;-78
2021/01/14 03:18:20;;;;;;;;;32.33;32.00;;;;;1.81;66.69;100326.94;5133129;27;8858;-77
2021/01/14 03:20:49;;;;;;;;;28.33;28.33;;;;;1.79;66.38;100329.13;5134653;27;8847;-78
2021/01/14 03:23:41;;;;;;;;;;;;;;;;;;;;;
2021/01/14 03:26:52;;;;;;;;;33.67;33.33;;;;;1.70;67.06;100331.63;5133668;27;8911;-78
2021/01/14 03:29:53;;;;;;;;;47.00;44.67;;;;;1.67;67.04;100329.47;5131828;27;8859;-78
2021/01/14 03:32:55;;;;;;;;;44.67;43.33;;;;;1.57;67.03;100340.41;5119434;27;8816;-77
2021/01/14 03:35:52;;;;;;;;;42.33;41.67;;;;;1.84;66.96;100340.84;5133131;27;8850;-78
2021/01/14 03:39:02;;;;;;;;;55.00;50.33;;;;;1.50;68.13;100334.44;5120516;27;8846;-77
2021/01/14 03:41:58;;;;;;;;;45.33;38.33;;;;;1.67;67.74;100334.91;5132946;27;8839;-77
2021/01/14 03:48:45;;;;;;;;;47.33;33.33;;;;;1.39;69.63;100337.22;5153283;27;8870;-76
2021/01/14 03:51:49;;;;;;;;;41.67;41.00;;;;;1.41;69.52;100339.66;5152927;27;8841;-77
2021/01/14 03:54:32;;;;;;;;;43.33;41.33;;;;;1.50;68.64;100340.72;5137854;27;8921;-77
2021/01/14 03:57:35;;;;;;;;;49.67;44.33;;;;;1.58;69.01;100345.59;5153684;27;8909;-77
2021/01/14 04:00:39;;;;;;;;;48.67;43.00;;;;;1.63;68.96;100345.56;5144418;27;9616;-77
2021/01/14 04:03:34;;;;;;;;;48.67;46.67;;;;;1.65;68.74;100337.09;5133683;27;8835;-77
2021/01/14 04:06:20;;;;;;;;;45.33;42.33;;;;;1.33;69.82;100327.44;5132829;27;8929;-77
2021/01/14 04:09:18;;;;;;;;;46.00;43.67;;;;;1.51;69.67;100319.72;5132860;27;8850;-77
2021/01/14 04:12:13;;;;;;;;;52.33;47.67;;;;;1.62;69.54;100313.16;5137541;27;8843;-77
2021/01/14 04:15:10;;;;;;;;;55.33;49.33;;;;;1.74;68.74;100315.53;5136783;27;8823;-77
2021/01/14 04:18:07;;;;;;;;;71.33;52.67;;;;;1.68;69.06;100317.44;5136574;27;8892;-77
2021/01/14 04:21:23;;;;;;;;;67.00;57.00;;;;;1.76;68.95;100322.31;5136192;27;9007;-77
2021/01/14 04:24:36;;;;;;;;;54.67;49.00;;;;;1.48;69.43;100328.47;5137762;27;8811;-79
2021/01/14 04:27:32;;;;;;;;;59.67;52.00;;;;;1.58;69.25;100326.50;5136705;27;8857;-79
2021/01/14 04:30:00;;;;;;;;;63.00;50.33;;;;;1.66;69.46;100325.09;5155078;27;8841;-78
2021/01/14 04:33:10;;;;;;;;;41.67;37.67;;;;;1.11;70.14;100329.69;5156837;27;8852;-78
2021/01/14 04:36:06;;;;;;;;;56.67;49.00;;;;;1.53;69.30;100336.59;5157017;27;8953;-79
2021/01/14 04:39:02;;;;;;;;;59.33;49.00;;;;;1.53;68.99;100347.50;5156960;27;8925;-78
2021/01/14 04:41:59;;;;;;;;;54.67;44.33;;;;;1.16;70.05;100347.94;5136881;27;8845;-78
2021/01/14 04:44:55;;;;;;;;;44.67;43.00;;;;;1.08;70.91;100349.31;5136674;27;8827;-78
2021/01/14 04:47:48;;;;;;;;;50.00;46.00;;;;;1.47;69.68;100351.38;5138111;27;8864;-78
2021/01/14 04:50:38;;;;;;;;;54.33;47.33;;;;;1.50;69.50;100350.81;5135875;27;8900;-78
2021/01/14 04:53:08;;;;;;;;;49.00;44.33;;;;;1.29;69.77;100356.31;5147520;27;8852;-78
2021/01/14 04:55:47;;;;;;;;;54.33;48.00;;;;;1.45;69.58;100353.53;5155667;27;8849;-72
2021/01/14 04:58:48;;;;;;;;;56.00;49.33;;;;;1.46;70.12;100350.56;5156840;27;9653;-73
2021/01/14 05:01:48;;;;;;;;;61.33;51.67;;;;;1.49;69.62;100360.06;5156405;27;9601;-72
2021/01/14 05:04:21;;;;;;;;;63.33;53.33;;;;;1.48;69.45;100363.91;5158190;27;8960;-72
2021/01/14 05:07:31;;;;;;;;;58.33;51.67;;;;;1.54;69.30;100362.78;5147507;27;8857;-72
2021/01/14 05:10:30;;;;;;;;;57.67;49.33;;;;;1.64;69.60;100363.56;5135604;27;8969;-72
2021/01/14 05:13:30;;;;;;;;;41.00;39.00;;;;;1.59;69.22;100369.00;5135480;27;8949;-73
2021/01/14 05:16:26;;;;;;;;;70.00;55.33;;;;;1.54;70.22;100362.78;5135784;27;11204;-73
2021/01/14 05:19:21;;;;;;;;;50.00;45.33;;;;;1.64;69.82;100369.00;5135607;27;8854;-73
2021/01/14 05:21:53;;;;;;;;;58.33;50.33;;;;;1.64;69.26;100373.66;5137339;27;8823;-74
2021/01/14 05:24:20;;;;;;;;;63.67;51.33;;;;;1.57;69.66;100378.56;5119132;27;8850;-74
2021/01/14 05:27:21;;;;;;;;;52.67;45.67;;;;;1.56;69.83;100380.50;5121197;27;8897;-73
2021/01/14 05:30:11;;;;;;;;;54.33;49.00;;;;;1.44;69.78;100377.25;5136259;27;8866;-73
2021/01/14 05:33:15;;;;;;;;;63.33;52.33;;;;;1.48;70.88;100391.97;5132225;27;8867;-73
2021/01/14 05:36:10;;;;;;;;;46.67;41.33;;;;;1.44;70.46;100395.50;5155042;27;8821;-73
2021/01/14 05:39:16;;;;;;;;;52.33;46.67;;;;;1.38;70.44;100389.25;5156168;27;8821;-72
2021/01/14 05:42:12;;;;;;;;;61.00;49.33;;;;;1.45;70.14;100408.03;5121227;27;8850;-73
2021/01/14 05:44:44;;;;;;;;;62.33;50.33;;;;;1.51;69.92;100399.56;5144446;27;8943;-73
2021/01/14 05:47:40;;;;;;;;;49.67;45.67;;;;;1.58;69.42;100408.28;5140088;27;8829;-73
2021/01/14 05:50:41;;;;;;;;;59.33;47.33;;;;;1.53;69.74;100404.75;5135199;27;8831;-73
2021/01/14 05:54:11;;;;;;;;;57.00;48.67;;;;;1.09;70.91;100410.88;5140453;27;8867;-72
2021/01/14 05:56:49;;;;;;;;;57.33;49.00;;;;;1.37;70.12;100415.69;5135873;27;8822;-73
2021/01/14 05:59:54;;;;;;;;;55.00;44.33;;;;;1.31;70.29;100419.53;5119526;27;8950;-73
2021/01/14 06:02:32;;;;;;;;;27.00;22.67;;;;;1.02;71.11;100413.88;5135697;27;8855;-72
2021/01/14 06:05:28;;;;;;;;;63.33;52.33;;;;;1.13;71.26;100419.28;5121418;27;8899;-73
2021/01/14 06:07:59;;;;;;;;;51.00;45.00;;;;;1.29;71.18;100418.16;5135712;27;8835;-73
2021/01/14 06:10:34;;;;;;;;;60.67;51.67;;;;;1.33;70.83;100411.09;5135593;27;8858;-73
2021/01/14 06:13:40;;;;;;;;;67.00;49.00;;;;;1.43;70.56;100407.50;5133948;27;8835;-73
2021/01/14 06:16:08;;;;;;;;;55.00;45.33;;;;;1.35;70.78;100417.06;5148186;27;8905;-73
2021/01/14 06:19:07;;;;;;;;;53.67;49.00;;;;;1.14;71.88;100415.47;5149901;27;8839;-74
2021/01/14 06:22:04;;;;;;;;;63.33;51.67;;;;;1.16;70.98;100421.47;5143561;27;9562;-72
2021/01/14 06:24:57;;;;;;;;;59.33;51.00;;;;;1.36;70.86;100414.06;5135130;27;8859;-72
2021/01/14 06:27:25;;;;;;;;;53.00;48.00;;;;;1.37;70.56;100425.78;5135218;27;8831;-73
2021/01/14 06:30:09;;;;;;;;;61.00;49.67;;;;;1.58;70.52;100421.91;5135306;27;8925;-73
2021/01/14 06:33:06;;;;;;;;;62.33;49.67;;;;;1.63;69.96;100415.63;5133877;27;8878;-73
2021/01/14 06:35:35;;;;;;;;;56.67;50.33;;;;;1.45;70.61;100416.22;5135118;27;8824;-72
2021/01/14 06:38:48;;;;;;;;;65.33;55.00;;;;;1.58;71.82;100421.09;5134835;27;8831;-74
2021/01/14 06:41:46;;;;;;;;;68.00;56.33;;;;;1.95;72.03;100420.69;5133570;27;8811;-73
2021/01/14 06:44:15;;;;;;;;;69.67;58.67;;;;;2.03;70.51;100420.09;5136707;27;8870;-73
2021/01/14 06:47:28;;;;;;;;;66.67;55.33;;;;;2.38;69.83;100412.81;5141471;27;9638;-72
2021/01/14 06:50:27;;;;;;;;;74.33;61.67;;;;;2.54;68.66;100413.53;5134272;27;9560;-72
2021/01/14 06:53:15;;;;;;;;;65.33;53.00;;;;;2.55;68.56;100404.22;5134553;27;8839;-73
2021/01/14 06:56:15;;;;;;;;;72.00;60.67;;;;;2.36;69.12;100414.97;5134531;27;9090;-72
2021/01/14 06:59:01;;;;;;;;;67.00;56.67;;;;;2.53;68.65;100420.91;5134309;27;8878;-72
2021/01/14 07:02:28;;;;;;;;;64.67;52.00;;;;;2.53;67.19;100429.09;5133361;27;8827;-72
2021/01/14 07:05:07;;;;;;;;;66.00;53.33;;;;;2.49;68.02;100420.63;5124038;27;8831;-72
2021/01/14 07:08:24;;;;;;;;;58.00;48.00;;;;;2.67;67.08;100434.69;5142177;27;8843;-72
2021/01/14 07:11:22;;;;;;;;;13.33;9.67;;;;;2.34;67.11;100431.66;5142517;27;8958;-72
2021/01/14 07:14:13;;;;;;;;;68.00;57.33;;;;;2.27;67.83;100433.06;5138638;27;8850;-72
2021/01/14 07:17:17;;;;;;;;;65.00;54.00;;;;;2.48;67.56;100434.56;5126774;27;8863;-72
2021/01/14 07:19:46;;;;;;;;;58.33;52.00;;;;;2.50;67.42;100446.00;5134231;27;8831;-71
2021/01/14 07:22:15;;;;;;;;;52.67;47.33;;;;;2.53;67.28;100453.66;5148322;27;8825;-74
2021/01/14 07:24:47;;;;;;;;;74.33;58.33;;;;;2.52;67.56;100446.53;5132980;27;9733;-75
2021/01/14 07:27:39;;;;;;;;;58.33;47.67;;;;;2.68;66.38;100456.25;5115435;27;8847;-75
2021/01/14 07:30:35;;;;;;;;;56.00;47.33;;;;;2.48;66.05;100456.41;5133642;27;8843;-76
2021/01/14 07:33:06;;;;;;;;;47.67;41.67;;;;;2.41;66.21;100469.53;5133986;27;8853;-74
2021/01/14 07:36:18;;;;;;;;;58.00;49.33;;;;;2.33;66.33;100489.25;5137471;27;8853;-75
2021/01/14 07:39:14;;;;;;;;;51.67;45.33;;;;;2.44;65.78;100486.16;5139999;27;9569;-74
2021/01/14 07:42:10;;;;;;;;;15.33;11.00;;;;;2.50;64.55;100489.69;5128777;27;8835;-75
2021/01/14 07:45:13;;;;;;;;;42.33;35.33;;;;;2.06;64.92;100484.16;5142239;27;8829;-74
2021/01/14 07:47:56;;;;;;;;;40.00;38.67;;;;;2.19;64.66;100495.31;5144594;27;8837;-75
2021/01/14 07:50:28;;;;;;;;;33.67;33.33;;;;;2.11;65.50;100489.63;5146689;27;8955;-76
2021/01/14 07:53:25;;;;;;;;;50.33;42.00;;;;;2.19;65.40;100497.22;5131626;27;8843;-76
2021/01/14 07:56:23;;;;;;;;;39.67;39.00;;;;;2.43;64.79;100495.44;5124429;27;9397;-75
2021/01/14 07:59:30;;;;;;;;;35.67;35.67;;;;;2.34;65.04;100486.22;5132499;27;8849;-75
2021/01/14 08:02:26;;;;;;;;;41.33;35.67;;;;;2.35;65.06;100492.50;5136738;27;8879;-74
2021/01/14 08:05:40;;;;;;;;;49.33;44.33;;;;;2.55;65.59;100497.84;5148254;27;9538;-77
2021/01/14 08:08:36;;;;;;;;;53.67;43.33;;;;;2.47;65.38;100490.25;5134693;27;9622;-75
2021/01/14 08:11:33;;;;;;;;;50.33;44.67;;;;;2.44;66.07;100485.34;5141331;27;9718;-76
2021/01/14 08:14:18;;;;;;;;;49.00;45.00;;;;;2.40;67.03;100489.75;5134711;27;8858;-75
2021/01/14 08:16:50;;;;;;;;;54.33;47.67;;;;;2.49;66.88;100485.34;5127470;27;9560;-77
2021/01/14 08:19:21;;;;;;;;;59.33;47.67;;;;;2.47;66.54;100482.88;5128212;27;8837;-76
2021/01/14 08:22:10;;;;;;;;;63.00;50.33;;;;;2.45;67.04;100479.63;5151488;27;8825;-76
2021/01/14 08:24:44;;;;;;;;;61.00;49.67;;;;;2.31;67.37;100483.25;5156135;27;8901;-76
2021/01/14 08:27:42;;;;;;;;;54.00;46.33;;;;;2.31;67.17;100486.81;5136187;27;8862;-76
2021/01/14 08:30:40;;;;;;;;;45.67;41.00;;;;;2.49;67.19;100488.88;5135791;27;8846;-77
2021/01/14 08:33:38;;;;;;;;;50.00;44.67;;;;;2.44;67.66;100482.63;5138437;27;8843;-76
2021/01/14 08:36:44;;;;;;;;;49.33;45.67;;;;;2.64;66.95;100466.13;5135816;27;8835;-76
2021/01/14 08:39:44;;;;;;;;;62.00;48.00;;;;;2.74;66.42;100466.03;5121806;27;9508;-76
2021/01/14 08:42:45;;;;;;;;;60.00;51.33;;;;;3.02;66.27;100467.19;5135799;27;8893;-77
2021/01/14 08:45:51;;;;;;;;;49.67;44.33;;;;;2.78;65.93;100467.13;5135212;27;8847;-77
2021/01/14 08:48:48;;;;;;;;;45.00;41.33;;;;;2.44;66.26;100475.25;5135373;27;8858;-76
2021/01/14 08:51:45;;;;;;;;;48.67;45.00;;;;;2.46;66.10;100475.00;5134919;27;8873;-76
2021/01/14 08:54:45;;;;;;;;;66.67;50.67;;;;;2.37;67.35;100477.47;5146061;27;9608;-76
2021/01/14 08:57:12;;;;;;;;;51.67;43.33;;;;;2.30;67.14;100473.41;5156767;27;8861;-76
2021/01/14 09:00:11;;;;;;;;;37.00;35.00;;;;;2.10;68.00;100477.06;5137548;27;8953;-77
2021/01/14 09:02:41;;;;;;;;;51.67;44.00;;;;;2.16;67.60;100487.69;5117516;27;8843;-77
2021/01/14 09:05:22;;;;;;;;;50.67;47.00;;;;;2.14;68.13;100480.84;5135288;27;8845;-76
2021/01/14 09:08:06;;;;;;;;;60.67;51.33;;;;;2.29;67.74;100477.25;5117597;27;8855;-77
2021/01/14 09:10:52;;;;;;;;;56.33;44.33;;;;;2.23;67.70;100474.56;5138123;27;8839;-77
2021/01/14 09:13:26;;;;;;;;;49.33;44.00;;;;;2.23;67.81;100473.75;5139708;27;8835;-77
2021/01/14 09:15:57;;;;;;;;;52.67;47.33;;;;;2.10;68.46;100469.72;5137855;27;8959;-78
2021/01/14 09:18:53;;;;;;;;;46.33;44.33;;;;;1.71;69.59;100475.03;5155299;27;8862;-76
2021/01/14 09:21:49;;;;;;;;;54.00;42.67;;;;;1.81;69.91;100468.72;5138377;27;8835;-76
2021/01/14 09:24:46;;;;;;;;;43.00;34.33;;;;;1.89;69.36;100474.41;5127295;27;8835;-77
2021/01/14 09:27:36;;;;;;;;;52.67;47.67;;;;;2.07;68.74;100474.88;5120332;27;8850;-78
2021/01/14 09:30:05;;;;;;;;;62.33;49.33;;;;;1.61;69.38;100467.72;5131304;27;8841;-77
2021/01/14 09:33:01;;;;;;;;;46.00;40.67;;;;;1.65;69.76;100465.22;5143225;27;8882;-77
2021/01/14 09:36:03;;;;;;;;;46.67;44.33;;;;;1.45;69.56;100455.19;5132475;27;8827;-77
2021/01/14 09:39:02;;;;;;;;;53.67;43.33;;;;;1.92;68.97;100460.25;5134899;27;8846;-78
2021/01/14 09:41:35;;;;;;;;;35.00;33.00;;;;;1.97;69.27;100456.66;5117821;27;8886;-78
2021/01/14 09:44:08;;;;;;;;;53.00;44.00;;;;;1.52;69.98;100441.28;5143785;27;8823;-76
2021/01/14 09:47:04;;;;;;;;;48.67;43.33;;;;;2.09;69.54;100445.44;5135274;27;8855;-77
2021/01/14 09:50:01;;;;;;;;;48.33;45.00;;;;;2.18;68.88;100446.47;5128849;27;8833;-76
2021/01/14 09:52:43;;;;;;;;;42.33;41.67;;;;;1.86;68.78;100442.25;5154564;27;8960;-77
2021/01/14 09:55:40;;;;;;;;;49.33;44.00;;;;;2.16;68.78;100443.22;5141091;27;8841;-76
2021/01/14 09:58:37;;;;;;;;;47.67;45.33;;;;;2.52;67.79;100435.63;5154139;27;8946;-77
2021/01/14 10:01:38;;;;;;;;;37.33;37.00;;;;;2.40;67.34;100430.53;5133006;27;8874;-76
2021/01/14 10:04:11;;;;;;;;;48.00;44.33;;;;;2.48;68.25;100432.66;5154672;27;8844;-75
2021/01/14 10:07:14;;;;;;;;;56.67;46.33;;;;;2.44;68.33;100434.31;5154161;27;8948;-76
2021/01/14 10:10:07;;;;;;;;;40.33;40.33;;;;;2.61;67.74;100416.75;5141432;27;8841;-76
2021/01/14 10:12:34;;;;;;;;;48.00;42.67;;;;;2.71;68.11;100411.19;5150046;27;8847;-75
2021/01/14 10:15:12;;;;;;;;;70.33;52.00;;;;;2.67;67.26;100410.13;5139727;27;8835;-76
2021/01/14 10:18:22;;;;;;;;;55.00;48.33;;;;;2.64;67.64;100413.44;5134034;27;9619;-76
2021/01/14 10:21:24;;;;;;;;;65.00;51.00;;;;;2.41;68.14;100409.50;5133503;27;8855;-77
2021/01/14 10:23:52;;;;;;;;;52.67;47.00;;;;;2.54;68.01;100413.53;5116932;27;8851;-77
2021/01/14 10:26:35;;;;;;;;;48.00;43.00;;;;;2.67;67.24;100404.66;5134871;27;8851;-76
2021/01/14 10:29:05;;;;;;;;;48.33;46.00;;;;;2.78;67.63;100409.78;5134722;27;8908;-77
2021/01/14 10:31:37;;;;;;;;;52.33;46.00;;;;;2.94;67.06;100404.19;5127277;27;8825;-76
2021/01/14 10:34:08;;;;;;;;;52.33;48.00;;;;;2.85;67.13;100409.44;5132625;27;8839;-76
2021/01/14 10:36:47;;;;;;;;;60.00;48.33;;;;;2.75;67.16;100404.84;5139946;27;8971;-75
2021/01/14 10:39:43;;;;;;;;;66.33;52.00;;;;;2.90;67.13;100398.44;5151062;27;8860;-76
2021/01/14 10:42:39;;;;;;;;;58.67;50.67;;;;;2.91;66.39;100407.47;5155068;27;8856;-76
2021/01/14 10:45:08;;;;;;;;;57.00;49.00;;;;;2.93;66.78;100386.97;5154578;27;8907;-75
2021/01/14 10:48:15;;;;;;;;;55.00;46.00;;;;;2.79;66.35;100392.28;5135794;27;8903;-76
2021/01/14 10:50:45;;;;;;;;;48.00;45.67;;;;;2.77;67.63;100399.94;5131228;27;8847;-76
2021/01/14 10:53:24;;;;;;;;;38.33;36.67;;;;;2.83;67.26;100394.41;5148491;27;8857;-75
2021/01/14 10:56:20;;;;;;;;;63.67;52.00;;;;;2.82;66.96;100395.53;5135976;27;8960;-75
2021/01/14 10:59:22;;;;;;;;;65.00;50.33;;;;;2.84;67.12;100399.63;5137250;27;8847;-76
2021/01/14 11:02:06;;;;;;;;;62.00;49.67;;;;;2.84;67.14;100399.63;5140081;27;8833;-76
2021/01/14 11:05:01;;;;;;;;;52.33;46.33;;;;;2.81;66.66;100402.91;5154193;27;8849;-76
2021/01/14 11:08:08;;;;;;;;;63.67;50.33;;;;;2.68;67.37;100396.19;5123198;27;8823;-76
2021/01/14 11:10:35;;;;;;;;;70.67;56.33;;;;;2.98;66.40;100395.09;5140346;27;9574;-75
2021/01/14 11:13:09;;;;;;;;;64.00;51.33;;;;;2.88;67.17;100388.94;5139768;27;8840;-75
2021/01/14 11:15:37;;;;;;;;;65.67;51.67;;;;;2.85;67.21;100384.88;5154876;27;8852;-75
2021/01/14 11:18:38;;;;;;;;;52.67;47.00;;;;;2.85;66.82;100384.06;5137846;27;8871;-76
2021/01/14 11:21:34;;;;;;;;;61.00;50.33;;;;;2.75;67.49;100383.00;5139637;27;8849;-75
2021/01/14 11:24:30;;;;;;;;;14.33;12.33;;;;;2.69;67.34;100394.28;5134682;27;8933;-76
2021/01/14 11:27:29;;;;;;;;;66.67;52.00;;;;;2.70;67.34;100398.66;5133742;27;8819;-76
2021/01/14 11:30:25;;;;;;;;;44.00;36.00;;;;;2.69;67.12;100384.19;5126924;27;8825;-77
2021/01/14 11:33:21;;;;;;;;;56.67;49.00;;;;;2.75;67.79;100374.00;5155510;27;8817;-75
2021/01/14 11:35:49;;;;;;;;;47.33;39.67;;;;;2.67;68.12;100372.69;5155140;27;8976;-75
2021/01/14 11:38:31;;;;;;;;;56.33;49.67;;;;;2.63;68.92;100371.66;5139270;27;8839;-74
2021/01/14 11:40:59;;;;;;;;;63.00;52.00;;;;;2.68;67.95;100368.06;5134799;27;8831;-74
2021/01/14 11:43:37;;;;;;;;;47.67;43.00;;;;;2.64;68.38;100364.28;5134099;27;8851;-74
2021/01/14 11:46:33;;;;;;;;;65.00;55.33;;;;;2.79;66.99;100369.63;5133353;27;8835;-73
2021/01/14 11:49:05;;;;;;;;;65.00;52.33;;;;;2.69;68.41;100370.53;5127887;27;8823;-75
2021/01/14 11:52:00;;;;;;;;;69.33;58.67;;;;;2.68;68.31;100384.44;5122232;27;8858;-72
2021/01/14 11:54:30;;;;;;;;;64.67;54.00;;;;;2.90;68.33;100386.72;5138137;27;8835;-73
2021/01/14 11:57:00;;;;;;;;;53.00;44.33;;;;;2.82;67.98;100399.06;5146561;27;8868;-73
2021/01/14 11:59:56;;;;;;;;;50.00;46.00;;;;;2.83;67.70;100406.16;5133423;27;8835;-74
2021/01/14 12:02:32;;;;;;;;;51.00;45.00;;;;;2.83;67.35;100411.63;5137601;27;9596;-74
2021/01/14 12:05:29;;;;;;;;;39.67;37.00;;;;;2.32;69.03;100406.56;5139362;27;8853;-75
2021/01/14 12:07:58;;;;;;;;;53.00;47.33;;;;;2.49;68.50;100404.25;5129029;27;8854;-75
2021/01/14 12:10:25;;;;;;;;;50.67;45.67;;;;;2.46;68.83;100407.56;5136629;27;8839;-75
2021/01/14 12:12:54;;;;;;;;;62.00;50.67;;;;;2.57;68.13;100408.28;5115150;27;8851;-75
2021/01/14 12:15:35;;;;;;;;;59.00;49.33;;;;;2.55;68.53;100404.22;5132498;27;8962;-74
2021/01/14 12:18:11;;;;;;;;;34.00;32.33;;;;;2.50;68.61;100407.78;5134186;27;8854;-74
2021/01/14 12:21:14;;;;;;;;;40.33;37.33;;;;;2.62;68.06;100402.81;5140577;27;8857;-74
2021/01/14 12:24:10;;;;;;;;;56.00;48.00;;;;;2.53;68.50;100403.66;5137732;27;9574;-73
2021/01/14 12:27:06;;;;;;;;;48.33;45.67;;;;;2.44;68.65;100408.91;5118850;27;8862;-74
2021/01/14 12:30:03;;;;;;;;;54.33;47.67;;;;;2.31;69.49;100404.94;5140166;27;8944;-74
2021/01/14 12:32:59;;;;;;;;;65.00;53.33;;;;;2.41;69.34;100412.22;5135538;27;8827;-73
2021/01/14 12:35:41;;;;;;;;;49.33;45.67;;;;;2.23;69.57;100400.06;5136978;27;8831;-74
2021/01/14 12:38:36;;;;;;;;;43.33;39.67;;;;;2.12;69.71;100417.59;5136217;27;8842;-74
2021/01/14 12:41:34;;;;;;;;;41.33;39.33;;;;;2.33;68.80;100421.84;5123620;27;8827;-74
2021/01/14 12:44:32;;;;;;;;;56.00;48.33;;;;;2.41;69.41;100428.59;5139927;27;8909;-75
2021/01/14 12:47:02;;;;;;;;;51.00;44.67;;;;;2.25;69.64;100432.53;5122922;27;8853;-74
2021/01/14 12:49:57;;;;;;;;;50.67;44.33;;;;;2.26;69.18;100434.97;5142564;27;8837;-74
2021/01/14 12:52:53;;;;;;;;;49.33;43.00;;;;;2.24;69.08;100431.72;5141470;27;8877;-74
2021/01/14 12:55:48;;;;;;;;;44.33;40.00;;;;;2.28;68.96;100438.22;5137334;27;8831;-74
2021/01/14 12:58:16;;;;;;;;;44.67;43.67;;;;;2.12;69.46;100434.75;5128326;27;8825;-74
2021/01/14 13:01:12;;;;;;;;;45.33;42.33;;;;;2.09;69.99;100438.06;5121924;27;8855;-74
2021/01/14 13:04:11;;;;;;;;;48.67;44.67;;;;;2.19;70.22;100438.00;5155841;27;8831;-73
2021/01/14 13:06:39;;;;;;;;;46.00;44.00;;;;;2.11;70.48;100445.97;5158000;27;8864;-74
2021/01/14 13:09:08;;;;;;;;;45.67;44.00;;;;;2.08;70.24;100446.53;5129513;27;8828;-73
2021/01/14 13:12:04;;;;;;;;;43.00;39.67;;;;;1.96;70.65;100452.31;5122051;27;8843;-73
2021/01/14 13:15:00;;;;;;;;;51.67;48.33;;;;;2.15;70.73;100441.59;5135718;27;8831;-74
2021/01/14 13:17:58;;;;;;;;;38.67;36.67;;;;;2.17;69.98;100444.84;5136275;27;8847;-74
2021/01/14 13:20:54;;;;;;;;;52.00;47.67;;;;;2.10;70.81;100442.44;5137854;27;8847;-77
2021/01/14 13:23:49;;;;;;;;;50.67;45.33;;;;;2.05;70.11;100447.88;5145132;27;8862;-73
2021/01/14 13:26:16;;;;;;;;;55.67;48.33;;;;;2.27;70.02;100447.50;5138819;27;8869;-73
2021/01/14 13:28:53;;;;;;;;;43.00;42.67;;;;;2.24;70.09;100450.81;5137728;27;8867;-74